sensor_id;sensor_type;location;lat;lon;timestamp;P1;durP1;ratioP1;P2;durP2;ratioP2
14021;SDS011;7086;48.116;11.580;2023-02-28T00:00:04;3.50;;;3.20;;
14021;SDS011;7086;48.116;11.580;2023-02-28T00:02:38;3.25;;;2.95;;
14021;SDS011;7086;48.116;11.580;2023-02-28T00:05:10;3.40;;;3.20;;
14021;SDS011;7086;48.116;11.580;2023-02-28T00:07:41;3.25;;;3.00;;
14021;SDS011;7086;48.116;11.580;2023-02-28T00:10:14;3.67;;;3.38;;
14021;SDS011;7086;48.116;11.580;2023-02-28T00:12:49;3.67;;;3.47;;
14021;SDS011;7086;48.116;11.580;2023-02-28T00:15:26;3.75;;;2.80;;
14021;SDS011;7086;48.116;11.580;2023-02-28T00:17:58;3.50;;;3.20;;
14021;SDS011;7086;48.116;11.580;2023-02-28T00:20:30;2.97;;;2.88;;
14021;SDS011;7086;48.116;11.580;2023-02-28T00:22:58;3.53;;;3.22;;
14021;SDS011;7086;48.116;11.580;2023-02-28T00:25:26;4.50;;;3.03;;
14021;SDS011;7086;48.116;11.580;2023-02-28T00:27:57;2.53;;;2.33;;
14021;SDS011;7086;48.116;11.580;2023-02-28T00:30:24;3.20;;;3.00;;
14021;SDS011;7086;48.116;11.580;2023-02-28T00:32:51;3.17;;;2.88;;
14021;SDS011;7086;48.116;11.580;2023-02-28T00:35:19;3.83;;;3.55;;
14021;SDS011;7086;48.116;11.580;2023-02-28T00:37:48;4.00;;;3.58;;
14021;SDS011;7086;48.116;11.580;2023-02-28T00:40:16;4.72;;;3.05;;
14021;SDS011;7086;48.116;11.580;2023-02-28T00:42:44;3.33;;;3.03;;
14021;SDS011;7086;48.116;11.580;2023-02-28T00:45:12;3.88;;;3.10;;
14021;SDS011;7086;48.116;11.580;2023-02-28T00:47:43;3.35;;;3.05;;
14021;SDS011;7086;48.116;11.580;2023-02-28T00:50:15;3.45;;;3.25;;
14021;SDS011;7086;48.116;11.580;2023-02-28T00:52:52;3.33;;;3.10;;
14021;SDS011;7086;48.116;11.580;2023-02-28T00:55:24;3.67;;;3.47;;
14021;SDS011;7086;48.116;11.580;2023-02-28T00:57:57;3.63;;;3.40;;
14021;SDS011;7086;48.116;11.580;2023-02-28T01:00:25;3.95;;;3.75;;
14021;SDS011;7086;48.116;11.580;2023-02-28T01:02:52;3.22;;;3.13;;
14021;SDS011;7086;48.116;11.580;2023-02-28T01:05:20;3.83;;;3.42;;
14021;SDS011;7086;48.116;11.580;2023-02-28T01:07:49;3.72;;;3.53;;
14021;SDS011;7086;48.116;11.580;2023-02-28T01:10:18;3.22;;;3.03;;
14021;SDS011;7086;48.116;11.580;2023-02-28T01:12:48;3.50;;;3.35;;
14021;SDS011;7086;48.116;11.580;2023-02-28T01:15:16;3.55;;;3.35;;
14021;SDS011;7086;48.116;11.580;2023-02-28T01:17:43;3.45;;;3.25;;
14021;SDS011;7086;48.116;11.580;2023-02-28T01:20:11;4.25;;;3.80;;
14021;SDS011;7086;48.116;11.580;2023-02-28T01:22:39;3.83;;;3.63;;
14021;SDS011;7086;48.116;11.580;2023-02-28T01:25:07;3.40;;;3.08;;
14021;SDS011;7086;48.116;11.580;2023-02-28T01:27:36;3.85;;;3.63;;
14021;SDS011;7086;48.116;11.580;2023-02-28T01:30:05;6.65;;;4.68;;
14021;SDS011;7086;48.116;11.580;2023-02-28T01:32:35;3.40;;;3.20;;
14021;SDS011;7086;48.116;11.580;2023-02-28T01:35:03;3.63;;;3.53;;
14021;SDS011;7086;48.116;11.580;2023-02-28T01:37:31;3.72;;;3.42;;
14021;SDS011;7086;48.116;11.580;2023-02-28T01:39:59;4.25;;;3.88;;
14021;SDS011;7086;48.116;11.580;2023-02-28T01:42:27;4.05;;;3.72;;
14021;SDS011;7086;48.116;11.580;2023-02-28T01:44:58;3.90;;;3.67;;
14021;SDS011;7086;48.116;11.580;2023-02-28T01:47:30;4.05;;;3.75;;
14021;SDS011;7086;48.116;11.580;2023-02-28T01:50:06;4.07;;;3.78;;
14021;SDS011;7086;48.116;11.580;2023-02-28T01:52:40;4.13;;;3.83;;
14021;SDS011;7086;48.116;11.580;2023-02-28T01:55:12;3.92;;;3.63;;
14021;SDS011;7086;48.116;11.580;2023-02-28T01:57:45;3.55;;;3.35;;
14021;SDS011;7086;48.116;11.580;2023-02-28T02:00:24;3.83;;;3.53;;
14021;SDS011;7086;48.116;11.580;2023-02-28T02:03:00;3.47;;;3.28;;
14021;SDS011;7086;48.116;11.580;2023-02-28T02:05:35;3.97;;;3.58;;
14021;SDS011;7086;48.116;11.580;2023-02-28T02:08:05;3.72;;;3.42;;
14021;SDS011;7086;48.116;11.580;2023-02-28T02:10:39;3.55;;;3.35;;
14021;SDS011;7086;48.116;11.580;2023-02-28T02:13:16;3.70;;;3.40;;
14021;SDS011;7086;48.116;11.580;2023-02-28T02:16:26;3.53;;;3.30;;
14021;SDS011;7086;48.116;11.580;2023-02-28T02:19:15;3.92;;;3.60;;
14021;SDS011;7086;48.116;11.580;2023-02-28T02:22:44;4.13;;;3.75;;
14021;SDS011;7086;48.116;11.580;2023-02-28T02:25:53;3.92;;;3.72;;
14021;SDS011;7086;48.116;11.580;2023-02-28T02:28:38;3.88;;;3.67;;
14021;SDS011;7086;48.116;11.580;2023-02-28T02:31:55;3.80;;;3.60;;
14021;SDS011;7086;48.116;11.580;2023-02-28T02:34:53;4.15;;;3.78;;
14021;SDS011;7086;48.116;11.580;2023-02-28T02:37:36;3.80;;;3.50;;
14021;SDS011;7086;48.116;11.580;2023-02-28T02:40:14;4.47;;;4.28;;
14021;SDS011;7086;48.116;11.580;2023-02-28T02:42:48;4.63;;;4.22;;
14021;SDS011;7086;48.116;11.580;2023-02-28T02:45:23;3.80;;;3.60;;
14021;SDS011;7086;48.116;11.580;2023-02-28T02:48:01;4.35;;;4.03;;
14021;SDS011;7086;48.116;11.580;2023-02-28T02:50:36;4.20;;;3.97;;
14021;SDS011;7086;48.116;11.580;2023-02-28T02:53:10;3.90;;;3.60;;
14021;SDS011;7086;48.116;11.580;2023-02-28T02:55:41;5.03;;;4.60;;
14021;SDS011;7086;48.116;11.580;2023-02-28T02:58:18;3.75;;;3.55;;
14021;SDS011;7086;48.116;11.580;2023-02-28T03:00:53;4.22;;;3.90;;
14021;SDS011;7086;48.116;11.580;2023-02-28T03:03:26;4.45;;;3.60;;
14021;SDS011;7086;48.116;11.580;2023-02-28T03:05:57;3.75;;;3.55;;
14021;SDS011;7086;48.116;11.580;2023-02-28T03:08:28;4.10;;;3.72;;
14021;SDS011;7086;48.116;11.580;2023-02-28T03:11:01;4.50;;;4.20;;
14021;SDS011;7086;48.116;11.580;2023-02-28T03:13:40;4.03;;;3.63;;
14021;SDS011;7086;48.116;11.580;2023-02-28T03:16:40;3.80;;;3.60;;
14021;SDS011;7086;48.116;11.580;2023-02-28T03:19:40;4.32;;;4.03;;
14021;SDS011;7086;48.116;11.580;2023-02-28T03:25:18;4.53;;;4.13;;
14021;SDS011;7086;48.116;11.580;2023-02-28T03:28:00;4.95;;;4.43;;
14021;SDS011;7086;48.116;11.580;2023-02-28T03:30:36;4.22;;;3.97;;
14021;SDS011;7086;48.116;11.580;2023-02-28T03:33:12;4.10;;;3.80;;
14021;SDS011;7086;48.116;11.580;2023-02-28T03:35:50;4.20;;;3.90;;
14021;SDS011;7086;48.116;11.580;2023-02-28T03:38:24;4.70;;;4.40;;
14021;SDS011;7086;48.116;11.580;2023-02-28T03:41:01;4.82;;;4.45;;
14021;SDS011;7086;48.116;11.580;2023-02-28T03:43:37;4.82;;;4.22;;
14021;SDS011;7086;48.116;11.580;2023-02-28T03:46:12;5.07;;;4.75;;
14021;SDS011;7086;48.116;11.580;2023-02-28T03:48:48;5.68;;;4.72;;
14021;SDS011;7086;48.116;11.580;2023-02-28T03:51:22;5.45;;;5.05;;
14021;SDS011;7086;48.116;11.580;2023-02-28T03:53:54;4.72;;;4.43;;
14021;SDS011;7086;48.116;11.580;2023-02-28T03:56:30;4.78;;;4.38;;
14021;SDS011;7086;48.116;11.580;2023-02-28T03:59:04;4.63;;;4.28;;
14021;SDS011;7086;48.116;11.580;2023-02-28T04:01:41;5.03;;;4.68;;
14021;SDS011;7086;48.116;11.580;2023-02-28T04:04:12;5.22;;;4.82;;
14021;SDS011;7086;48.116;11.580;2023-02-28T04:06:41;5.40;;;5.00;;
14021;SDS011;7086;48.116;11.580;2023-02-28T04:09:12;5.20;;;4.78;;
14021;SDS011;7086;48.116;11.580;2023-02-28T04:11:41;5.45;;;5.05;;
14021;SDS011;7086;48.116;11.580;2023-02-28T04:14:12;5.32;;;4.85;;
14021;SDS011;7086;48.116;11.580;2023-02-28T04:16:40;4.72;;;4.35;;
14021;SDS011;7086;48.116;11.580;2023-02-28T04:19:09;5.03;;;4.63;;
14021;SDS011;7086;48.116;11.580;2023-02-28T04:21:40;6.55;;;6.00;;
14021;SDS011;7086;48.116;11.580;2023-02-28T04:24:12;5.78;;;5.20;;
14021;SDS011;7086;48.116;11.580;2023-02-28T04:26:42;5.13;;;4.75;;
14021;SDS011;7086;48.116;11.580;2023-02-28T04:29:12;4.05;;;3.75;;
14021;SDS011;7086;48.116;11.580;2023-02-28T04:31:43;5.60;;;4.60;;
14021;SDS011;7086;48.116;11.580;2023-02-28T04:34:11;4.68;;;4.35;;
14021;SDS011;7086;48.116;11.580;2023-02-28T04:36:38;6.38;;;5.78;;
14021;SDS011;7086;48.116;11.580;2023-02-28T04:39:06;6.22;;;5.63;;
14021;SDS011;7086;48.116;11.580;2023-02-28T04:41:36;6.00;;;5.50;;
14021;SDS011;7086;48.116;11.580;2023-02-28T04:44:04;4.38;;;4.10;;
14021;SDS011;7086;48.116;11.580;2023-02-28T04:46:31;6.38;;;5.82;;
14021;SDS011;7086;48.116;11.580;2023-02-28T04:48:58;6.88;;;6.28;;
14021;SDS011;7086;48.116;11.580;2023-02-28T04:51:26;7.18;;;6.57;;
14021;SDS011;7086;48.116;11.580;2023-02-28T04:53:53;7.68;;;6.90;;
14021;SDS011;7086;48.116;11.580;2023-02-28T04:56:21;6.85;;;6.25;;
14021;SDS011;7086;48.116;11.580;2023-02-28T04:58:50;6.53;;;5.93;;
14021;SDS011;7086;48.116;11.580;2023-02-28T05:01:21;7.97;;;6.70;;
14021;SDS011;7086;48.116;11.580;2023-02-28T05:03:52;6.78;;;6.07;;
14021;SDS011;7086;48.116;11.580;2023-02-28T05:06:24;7.60;;;6.80;;
14021;SDS011;7086;48.116;11.580;2023-02-28T05:09:02;6.25;;;5.65;;
14021;SDS011;7086;48.116;11.580;2023-02-28T05:11:32;6.80;;;6.13;;
14021;SDS011;7086;48.116;11.580;2023-02-28T05:14:10;7.97;;;7.22;;
14021;SDS011;7086;48.116;11.580;2023-02-28T05:16:41;7.40;;;6.47;;
14021;SDS011;7086;48.116;11.580;2023-02-28T05:19:10;5.50;;;4.95;;
14021;SDS011;7086;48.116;11.580;2023-02-28T05:21:42;6.60;;;6.07;;
14021;SDS011;7086;48.116;11.580;2023-02-28T05:24:21;7.50;;;6.72;;
14021;SDS011;7086;48.116;11.580;2023-02-28T05:26:52;5.60;;;5.10;;
14021;SDS011;7086;48.116;11.580;2023-02-28T05:32:24;9.38;;;8.48;;
14021;SDS011;7086;48.116;11.580;2023-02-28T05:34:53;8.23;;;7.45;;
14021;SDS011;7086;48.116;11.580;2023-02-28T05:37:21;10.05;;;8.00;;
14021;SDS011;7086;48.116;11.580;2023-02-28T05:39:48;8.70;;;7.90;;
14021;SDS011;7086;48.116;11.580;2023-02-28T05:42:16;8.20;;;7.47;;
14021;SDS011;7086;48.116;11.580;2023-02-28T05:44:43;8.63;;;7.82;;
14021;SDS011;7086;48.116;11.580;2023-02-28T05:47:13;9.15;;;8.27;;
14021;SDS011;7086;48.116;11.580;2023-02-28T05:49:42;9.00;;;8.20;;
14021;SDS011;7086;48.116;11.580;2023-02-28T05:52:09;9.00;;;7.88;;
14021;SDS011;7086;48.116;11.580;2023-02-28T05:54:37;8.02;;;7.25;;
14021;SDS011;7086;48.116;11.580;2023-02-28T05:57:06;7.82;;;6.97;;
14021;SDS011;7086;48.116;11.580;2023-02-28T05:59:34;12.60;;;9.10;;
14021;SDS011;7086;48.116;11.580;2023-02-28T06:02:05;9.05;;;8.13;;
14021;SDS011;7086;48.116;11.580;2023-02-28T06:04:43;8.70;;;6.35;;
14021;SDS011;7086;48.116;11.580;2023-02-28T06:07:11;8.07;;;7.28;;
14021;SDS011;7086;48.116;11.580;2023-02-28T06:09:39;11.43;;;8.77;;
14021;SDS011;7086;48.116;11.580;2023-02-28T06:12:06;15.60;;;10.90;;
14021;SDS011;7086;48.116;11.580;2023-02-28T06:14:35;7.65;;;6.53;;
14021;SDS011;7086;48.116;11.580;2023-02-28T06:17:09;10.65;;;8.57;;
14021;SDS011;7086;48.116;11.580;2023-02-28T06:19:37;7.93;;;7.22;;
14021;SDS011;7086;48.116;11.580;2023-02-28T06:22:21;9.70;;;8.02;;
14021;SDS011;7086;48.116;11.580;2023-02-28T06:24:49;9.55;;;8.65;;
14021;SDS011;7086;48.116;11.580;2023-02-28T06:27:22;11.98;;;8.88;;
14021;SDS011;7086;48.116;11.580;2023-02-28T06:29:52;10.35;;;9.25;;
14021;SDS011;7086;48.116;11.580;2023-02-28T06:32:22;9.57;;;8.77;;
14021;SDS011;7086;48.116;11.580;2023-02-28T06:35:01;11.70;;;10.50;;
14021;SDS011;7086;48.116;11.580;2023-02-28T06:40:29;13.35;;;10.20;;
14021;SDS011;7086;48.116;11.580;2023-02-28T06:43:11;12.23;;;10.63;;
14021;SDS011;7086;48.116;11.580;2023-02-28T06:45:54;10.40;;;8.80;;
14021;SDS011;7086;48.116;11.580;2023-02-28T06:48:40;9.73;;;8.65;;
14021;SDS011;7086;48.116;11.580;2023-02-28T06:51:22;10.55;;;8.77;;
14021;SDS011;7086;48.116;11.580;2023-02-28T07:00:23;10.20;;;8.38;;
14021;SDS011;7086;48.116;11.580;2023-02-28T07:03:06;14.80;;;10.70;;
14021;SDS011;7086;48.116;11.580;2023-02-28T07:05:34;12.27;;;8.50;;
14021;SDS011;7086;48.116;11.580;2023-02-28T07:08:18;11.32;;;9.50;;
14021;SDS011;7086;48.116;11.580;2023-02-28T07:10:47;14.20;;;10.43;;
14021;SDS011;7086;48.116;11.580;2023-02-28T07:16:07;11.27;;;8.50;;
14021;SDS011;7086;48.116;11.580;2023-02-28T07:18:54;10.25;;;8.13;;
14021;SDS011;7086;48.116;11.580;2023-02-28T07:21:37;11.60;;;10.38;;
14021;SDS011;7086;48.116;11.580;2023-02-28T07:24:25;14.27;;;11.27;;
14021;SDS011;7086;48.116;11.580;2023-02-28T07:27:06;14.77;;;10.05;;
14021;SDS011;7086;48.116;11.580;2023-02-28T07:29:52;13.65;;;10.13;;
14021;SDS011;7086;48.116;11.580;2023-02-28T07:32:26;13.93;;;10.15;;
14021;SDS011;7086;48.116;11.580;2023-02-28T07:35:08;6.32;;;5.72;;
14021;SDS011;7086;48.116;11.580;2023-02-28T07:37:49;10.13;;;9.07;;
14021;SDS011;7086;48.116;11.580;2023-02-28T07:40:22;17.42;;;11.02;;
14021;SDS011;7086;48.116;11.580;2023-02-28T07:43:04;11.93;;;10.35;;
14021;SDS011;7086;48.116;11.580;2023-02-28T07:45:49;9.50;;;8.55;;
14021;SDS011;7086;48.116;11.580;2023-02-28T07:48:18;14.77;;;9.18;;
14021;SDS011;7086;48.116;11.580;2023-02-28T07:50:53;10.43;;;8.68;;
14021;SDS011;7086;48.116;11.580;2023-02-28T07:53:22;9.85;;;8.82;;
14021;SDS011;7086;48.116;11.580;2023-02-28T07:56:04;10.93;;;9.75;;
14021;SDS011;7086;48.116;11.580;2023-02-28T07:58:36;10.05;;;8.88;;
14021;SDS011;7086;48.116;11.580;2023-02-28T08:04:18;16.23;;;10.15;;
14021;SDS011;7086;48.116;11.580;2023-02-28T08:06:59;11.00;;;9.90;;
14021;SDS011;7086;48.116;11.580;2023-02-28T08:09:29;11.65;;;9.88;;
14021;SDS011;7086;48.116;11.580;2023-02-28T08:11:59;12.07;;;9.80;;
14021;SDS011;7086;48.116;11.580;2023-02-28T08:14:40;11.85;;;10.25;;
14021;SDS011;7086;48.116;11.580;2023-02-28T08:20:54;12.55;;;11.25;;
14021;SDS011;7086;48.116;11.580;2023-02-28T08:23:36;13.40;;;10.38;;
14021;SDS011;7086;48.116;11.580;2023-02-28T08:26:18;13.25;;;11.40;;
14021;SDS011;7086;48.116;11.580;2023-02-28T08:29:00;11.73;;;10.25;;
14021;SDS011;7086;48.116;11.580;2023-02-28T08:31:41;14.02;;;9.93;;
14021;SDS011;7086;48.116;11.580;2023-02-28T08:34:24;10.63;;;9.57;;
14021;SDS011;7086;48.116;11.580;2023-02-28T08:37:33;14.90;;;10.55;;
14021;SDS011;7086;48.116;11.580;2023-02-28T08:40:02;11.73;;;10.52;;
14021;SDS011;7086;48.116;11.580;2023-02-28T08:42:44;12.02;;;10.82;;
14021;SDS011;7086;48.116;11.580;2023-02-28T08:45:25;11.95;;;10.43;;
14021;SDS011;7086;48.116;11.580;2023-02-28T08:48:08;16.40;;;9.73;;
14021;SDS011;7086;48.116;11.580;2023-02-28T08:50:58;10.10;;;8.15;;
14021;SDS011;7086;48.116;11.580;2023-02-28T08:53:45;15.45;;;11.32;;
14021;SDS011;7086;48.116;11.580;2023-02-28T08:56:26;11.48;;;9.88;;
14021;SDS011;7086;48.116;11.580;2023-02-28T08:58:56;11.00;;;9.07;;
14021;SDS011;7086;48.116;11.580;2023-02-28T09:01:38;10.13;;;8.93;;
14021;SDS011;7086;48.116;11.580;2023-02-28T09:04:19;11.40;;;9.18;;
14021;SDS011;7086;48.116;11.580;2023-02-28T09:06:47;15.02;;;10.57;;
14021;SDS011;7086;48.116;11.580;2023-02-28T09:12:32;11.00;;;9.70;;
14021;SDS011;7086;48.116;11.580;2023-02-28T09:15:15;11.23;;;9.15;;
14021;SDS011;7086;48.116;11.580;2023-02-28T09:17:56;9.77;;;8.77;;
14021;SDS011;7086;48.116;11.580;2023-02-28T09:20:26;9.13;;;8.23;;
14021;SDS011;7086;48.116;11.580;2023-02-28T09:23:07;15.15;;;10.98;;
14021;SDS011;7086;48.116;11.580;2023-02-28T09:32:32;14.82;;;10.40;;
14021;SDS011;7086;48.116;11.580;2023-02-28T09:35:00;11.38;;;10.18;;
14021;SDS011;7086;48.116;11.580;2023-02-28T09:37:45;10.45;;;9.25;;
14021;SDS011;7086;48.116;11.580;2023-02-28T09:40:29;11.98;;;9.27;;
14021;SDS011;7086;48.116;11.580;2023-02-28T09:42:59;14.32;;;12.13;;
14021;SDS011;7086;48.116;11.580;2023-02-28T09:45:42;11.90;;;9.85;;
14021;SDS011;7086;48.116;11.580;2023-02-28T10:07:01;11.48;;;9.80;;
14021;SDS011;7086;48.116;11.580;2023-02-28T10:09:52;9.95;;;9.02;;
14021;SDS011;7086;48.116;11.580;2023-02-28T10:12:39;12.05;;;10.23;;
14021;SDS011;7086;48.116;11.580;2023-02-28T10:15:27;16.55;;;12.43;;
14021;SDS011;7086;48.116;11.580;2023-02-28T10:18:26;12.80;;;11.05;;
14021;SDS011;7086;48.116;11.580;2023-02-28T10:21:24;11.75;;;8.90;;
14021;SDS011;7086;48.116;11.580;2023-02-28T15:01:42;12.80;;;9.20;;
14021;SDS011;7086;48.116;11.580;2023-02-28T15:04:25;9.13;;;8.30;;
14021;SDS011;7086;48.116;11.580;2023-02-28T15:07:09;10.95;;;8.80;;
14021;SDS011;7086;48.116;11.580;2023-02-28T15:10:08;10.35;;;9.18;;
14021;SDS011;7086;48.116;11.580;2023-02-28T15:12:51;10.93;;;8.57;;
14021;SDS011;7086;48.116;11.580;2023-02-28T15:15:45;9.02;;;7.82;;
14021;SDS011;7086;48.116;11.580;2023-02-28T23:10:53;12.20;;;10.68;;
14021;SDS011;7086;48.116;11.580;2023-02-28T23:13:23;13.18;;;11.38;;
14021;SDS011;7086;48.116;11.580;2023-02-28T23:16:28;12.65;;;11.32;;
14021;SDS011;7086;48.116;11.580;2023-02-28T23:22:26;14.68;;;12.52;;
14021;SDS011;7086;48.116;11.580;2023-02-28T23:25:27;22.95;;;13.20;;
14021;SDS011;7086;48.116;11.580;2023-02-28T23:28:19;13.60;;;10.95;;
14021;SDS011;7086;48.116;11.580;2023-02-28T23:31:03;14.48;;;11.70;;
14021;SDS011;7086;48.116;11.580;2023-02-28T23:34:11;19.00;;;12.52;;
14021;SDS011;7086;48.116;11.580;2023-02-28T23:37:38;13.13;;;11.25;;
14021;SDS011;7086;48.116;11.580;2023-02-28T23:44:37;10.95;;;9.82;;
14021;SDS011;7086;48.116;11.580;2023-02-28T23:47:21;14.02;;;11.48;;
14021;SDS011;7086;48.116;11.580;2023-02-28T23:51:01;15.15;;;12.00;;
14021;SDS011;7086;48.116;11.580;2023-02-28T23:53:42;13.55;;;11.90;;
14021;SDS011;7086;48.116;11.580;2023-02-28T23:56:13;14.00;;;12.50;;
14021;SDS011;7086;48.116;11.580;2023-02-28T23:58:44;15.23;;;12.43;;
